sensor_id;sensor_type;location;lat;lon;timestamp;P1;durP1;ratioP1;P2;durP2;ratioP2
69434;SDS011;56625;54.322;18.582;2024-02-26T00:02:28;12.90;;;4.30;;
69434;SDS011;56625;54.322;18.582;2024-02-26T00:04:57;12.90;;;4.70;;
69434;SDS011;56625;54.322;18.582;2024-02-26T00:07:25;11.60;;;4.20;;
69434;SDS011;56625;54.322;18.582;2024-02-26T00:09:53;10.80;;;3.70;;
69434;SDS011;56625;54.322;18.582;2024-02-26T00:12:21;12.60;;;3.90;;
69434;SDS011;56625;54.322;18.582;2024-02-26T00:14:50;10.90;;;3.30;;
69434;SDS011;56625;54.322;18.582;2024-02-26T00:17:18;10.50;;;3.70;;
69434;SDS011;56625;54.322;18.582;2024-02-26T00:19:46;10.50;;;3.90;;
69434;SDS011;56625;54.322;18.582;2024-02-26T00:22:15;13.00;;;3.80;;
69434;SDS011;56625;54.322;18.582;2024-02-26T00:24:43;10.20;;;3.60;;
69434;SDS011;56625;54.322;18.582;2024-02-26T00:27:11;9.00;;;3.50;;
69434;SDS011;56625;54.322;18.582;2024-02-26T00:29:40;9.90;;;2.90;;
69434;SDS011;56625;54.322;18.582;2024-02-26T00:32:08;9.80;;;3.90;;
69434;SDS011;56625;54.322;18.582;2024-02-26T00:34:36;11.80;;;4.00;;
69434;SDS011;56625;54.322;18.582;2024-02-26T00:37:05;10.70;;;4.20;;
69434;SDS011;56625;54.322;18.582;2024-02-26T00:39:33;12.00;;;4.40;;
69434;SDS011;56625;54.322;18.582;2024-02-26T00:42:02;11.20;;;4.00;;
69434;SDS011;56625;54.322;18.582;2024-02-26T00:44:31;11.30;;;4.40;;
69434;SDS011;56625;54.322;18.582;2024-02-26T00:47:00;11.00;;;4.50;;
69434;SDS011;56625;54.322;18.582;2024-02-26T00:49:28;11.00;;;3.90;;
69434;SDS011;56625;54.322;18.582;2024-02-26T00:51:57;9.00;;;3.70;;
69434;SDS011;56625;54.322;18.582;2024-02-26T00:54:25;13.10;;;4.80;;
69434;SDS011;56625;54.322;18.582;2024-02-26T00:56:53;11.60;;;4.20;;
69434;SDS011;56625;54.322;18.582;2024-02-26T00:59:21;9.80;;;4.00;;
69434;SDS011;56625;54.322;18.582;2024-02-26T01:01:49;13.30;;;5.20;;
69434;SDS011;56625;54.322;18.582;2024-02-26T01:04:18;13.90;;;5.50;;
69434;SDS011;56625;54.322;18.582;2024-02-26T01:06:46;15.50;;;5.80;;
69434;SDS011;56625;54.322;18.582;2024-02-26T01:09:14;15.30;;;6.30;;
69434;SDS011;56625;54.322;18.582;2024-02-26T01:11:43;16.00;;;6.10;;
69434;SDS011;56625;54.322;18.582;2024-02-26T01:14:12;15.70;;;5.60;;
69434;SDS011;56625;54.322;18.582;2024-02-26T01:16:40;14.10;;;5.90;;
69434;SDS011;56625;54.322;18.582;2024-02-26T01:19:08;15.60;;;6.20;;
69434;SDS011;56625;54.322;18.582;2024-02-26T01:21:37;13.40;;;5.60;;
69434;SDS011;56625;54.322;18.582;2024-02-26T01:24:05;15.70;;;5.70;;
69434;SDS011;56625;54.322;18.582;2024-02-26T01:26:34;13.80;;;5.60;;
69434;SDS011;56625;54.322;18.582;2024-02-26T01:29:02;13.30;;;5.60;;
69434;SDS011;56625;54.322;18.582;2024-02-26T01:31:31;15.70;;;4.70;;
69434;SDS011;56625;54.322;18.582;2024-02-26T01:33:59;12.10;;;4.50;;
69434;SDS011;56625;54.322;18.582;2024-02-26T01:36:29;14.10;;;5.10;;
69434;SDS011;56625;54.322;18.582;2024-02-26T01:38:57;12.50;;;4.90;;
69434;SDS011;56625;54.322;18.582;2024-02-26T01:41:25;12.20;;;4.90;;
69434;SDS011;56625;54.322;18.582;2024-02-26T01:43:53;13.00;;;5.10;;
69434;SDS011;56625;54.322;18.582;2024-02-26T01:46:22;12.90;;;4.90;;
69434;SDS011;56625;54.322;18.582;2024-02-26T01:48:50;14.70;;;4.70;;
69434;SDS011;56625;54.322;18.582;2024-02-26T01:51:19;12.20;;;5.40;;
69434;SDS011;56625;54.322;18.582;2024-02-26T01:53:48;12.20;;;5.00;;
69434;SDS011;56625;54.322;18.582;2024-02-26T01:56:17;14.90;;;6.10;;
69434;SDS011;56625;54.322;18.582;2024-02-26T01:58:48;15.10;;;6.20;;
69434;SDS011;56625;54.322;18.582;2024-02-26T02:01:19;15.20;;;5.90;;
69434;SDS011;56625;54.322;18.582;2024-02-26T02:03:49;14.40;;;6.10;;
69434;SDS011;56625;54.322;18.582;2024-02-26T02:06:18;15.50;;;5.70;;
69434;SDS011;56625;54.322;18.582;2024-02-26T02:08:47;15.20;;;5.30;;
69434;SDS011;56625;54.322;18.582;2024-02-26T02:11:16;14.90;;;5.80;;
69434;SDS011;56625;54.322;18.582;2024-02-26T02:13:45;14.70;;;5.70;;
69434;SDS011;56625;54.322;18.582;2024-02-26T02:16:14;15.90;;;5.40;;
69434;SDS011;56625;54.322;18.582;2024-02-26T02:18:42;13.60;;;5.30;;
69434;SDS011;56625;54.322;18.582;2024-02-26T02:21:11;12.10;;;4.50;;
69434;SDS011;56625;54.322;18.582;2024-02-26T02:23:39;13.40;;;5.40;;
69434;SDS011;56625;54.322;18.582;2024-02-26T02:26:08;12.40;;;5.10;;
69434;SDS011;56625;54.322;18.582;2024-02-26T02:28:36;10.80;;;3.80;;
69434;SDS011;56625;54.322;18.582;2024-02-26T02:31:05;13.30;;;5.40;;
69434;SDS011;56625;54.322;18.582;2024-02-26T02:33:34;14.00;;;5.20;;
69434;SDS011;56625;54.322;18.582;2024-02-26T02:36:04;13.50;;;5.20;;
69434;SDS011;56625;54.322;18.582;2024-02-26T02:38:37;14.40;;;5.40;;
69434;SDS011;56625;54.322;18.582;2024-02-26T02:41:06;16.00;;;5.90;;
69434;SDS011;56625;54.322;18.582;2024-02-26T02:43:34;14.20;;;5.60;;
69434;SDS011;56625;54.322;18.582;2024-02-26T02:46:02;14.20;;;5.80;;
69434;SDS011;56625;54.322;18.582;2024-02-26T02:48:30;13.30;;;5.50;;
69434;SDS011;56625;54.322;18.582;2024-02-26T02:50:59;12.30;;;5.80;;
69434;SDS011;56625;54.322;18.582;2024-02-26T02:53:27;17.40;;;5.90;;
69434;SDS011;56625;54.322;18.582;2024-02-26T02:55:55;17.90;;;6.20;;
69434;SDS011;56625;54.322;18.582;2024-02-26T02:58:23;16.30;;;6.20;;
69434;SDS011;56625;54.322;18.582;2024-02-26T03:00:52;14.50;;;5.40;;
69434;SDS011;56625;54.322;18.582;2024-02-26T03:03:20;14.50;;;5.80;;
69434;SDS011;56625;54.322;18.582;2024-02-26T03:05:49;15.30;;;5.70;;
69434;SDS011;56625;54.322;18.582;2024-02-26T03:08:17;15.10;;;6.00;;
69434;SDS011;56625;54.322;18.582;2024-02-26T03:10:47;16.90;;;5.80;;
69434;SDS011;56625;54.322;18.582;2024-02-26T03:13:15;16.30;;;6.50;;
69434;SDS011;56625;54.322;18.582;2024-02-26T03:15:43;17.80;;;6.90;;
69434;SDS011;56625;54.322;18.582;2024-02-26T03:18:12;16.80;;;6.50;;
69434;SDS011;56625;54.322;18.582;2024-02-26T03:20:40;18.00;;;7.00;;
69434;SDS011;56625;54.322;18.582;2024-02-26T03:23:08;18.80;;;6.90;;
69434;SDS011;56625;54.322;18.582;2024-02-26T03:25:44;18.70;;;6.60;;
69434;SDS011;56625;54.322;18.582;2024-02-26T03:28:14;13.00;;;5.60;;
69434;SDS011;56625;54.322;18.582;2024-02-26T03:30:42;16.50;;;6.50;;
69434;SDS011;56625;54.322;18.582;2024-02-26T03:33:10;16.30;;;6.70;;
69434;SDS011;56625;54.322;18.582;2024-02-26T03:35:39;16.40;;;6.30;;
69434;SDS011;56625;54.322;18.582;2024-02-26T03:38:07;18.00;;;6.50;;
69434;SDS011;56625;54.322;18.582;2024-02-26T03:40:35;14.80;;;5.80;;
69434;SDS011;56625;54.322;18.582;2024-02-26T03:43:04;16.80;;;6.20;;
69434;SDS011;56625;54.322;18.582;2024-02-26T03:45:35;15.80;;;5.80;;
69434;SDS011;56625;54.322;18.582;2024-02-26T03:48:03;14.40;;;5.80;;
69434;SDS011;56625;54.322;18.582;2024-02-26T03:50:32;17.50;;;5.90;;
69434;SDS011;56625;54.322;18.582;2024-02-26T03:53:02;18.10;;;6.00;;
69434;SDS011;56625;54.322;18.582;2024-02-26T03:55:31;14.20;;;5.60;;
69434;SDS011;56625;54.322;18.582;2024-02-26T03:57:59;16.00;;;6.20;;
69434;SDS011;56625;54.322;18.582;2024-02-26T04:00:27;17.30;;;7.10;;
69434;SDS011;56625;54.322;18.582;2024-02-26T04:02:58;16.60;;;7.00;;
69434;SDS011;56625;54.322;18.582;2024-02-26T04:05:26;18.10;;;7.40;;
69434;SDS011;56625;54.322;18.582;2024-02-26T04:07:54;15.70;;;7.00;;
69434;SDS011;56625;54.322;18.582;2024-02-26T04:10:23;19.10;;;7.40;;
69434;SDS011;56625;54.322;18.582;2024-02-26T04:12:51;17.40;;;7.30;;
69434;SDS011;56625;54.322;18.582;2024-02-26T04:15:19;15.20;;;6.70;;
69434;SDS011;56625;54.322;18.582;2024-02-26T04:17:47;16.70;;;6.90;;
69434;SDS011;56625;54.322;18.582;2024-02-26T04:20:16;18.40;;;7.40;;
69434;SDS011;56625;54.322;18.582;2024-02-26T04:22:44;18.20;;;7.60;;
69434;SDS011;56625;54.322;18.582;2024-02-26T04:25:13;19.00;;;8.10;;
69434;SDS011;56625;54.322;18.582;2024-02-26T04:27:41;19.10;;;8.00;;
69434;SDS011;56625;54.322;18.582;2024-02-26T04:30:10;18.40;;;8.00;;
69434;SDS011;56625;54.322;18.582;2024-02-26T04:32:39;19.70;;;7.50;;
69434;SDS011;56625;54.322;18.582;2024-02-26T04:35:08;16.90;;;7.70;;
69434;SDS011;56625;54.322;18.582;2024-02-26T04:37:37;16.80;;;7.20;;
69434;SDS011;56625;54.322;18.582;2024-02-26T04:40:06;19.00;;;8.00;;
69434;SDS011;56625;54.322;18.582;2024-02-26T04:42:35;16.80;;;7.30;;
69434;SDS011;56625;54.322;18.582;2024-02-26T04:45:04;18.80;;;7.20;;
69434;SDS011;56625;54.322;18.582;2024-02-26T04:47:33;17.60;;;7.20;;
69434;SDS011;56625;54.322;18.582;2024-02-26T04:50:01;15.50;;;7.40;;
69434;SDS011;56625;54.322;18.582;2024-02-26T04:52:29;15.70;;;7.00;;
69434;SDS011;56625;54.322;18.582;2024-02-26T04:54:58;16.70;;;7.00;;
69434;SDS011;56625;54.322;18.582;2024-02-26T04:57:27;17.00;;;7.60;;
69434;SDS011;56625;54.322;18.582;2024-02-26T04:59:56;15.90;;;7.20;;
69434;SDS011;56625;54.322;18.582;2024-02-26T05:02:24;17.40;;;7.60;;
69434;SDS011;56625;54.322;18.582;2024-02-26T05:04:52;18.20;;;7.60;;
69434;SDS011;56625;54.322;18.582;2024-02-26T05:07:22;18.80;;;8.30;;
69434;SDS011;56625;54.322;18.582;2024-02-26T05:09:50;18.10;;;8.50;;
69434;SDS011;56625;54.322;18.582;2024-02-26T05:12:18;15.60;;;7.10;;
69434;SDS011;56625;54.322;18.582;2024-02-26T05:14:47;18.70;;;8.50;;
69434;SDS011;56625;54.322;18.582;2024-02-26T05:17:15;20.90;;;8.80;;
69434;SDS011;56625;54.322;18.582;2024-02-26T05:19:43;19.90;;;8.50;;
69434;SDS011;56625;54.322;18.582;2024-02-26T05:22:11;18.10;;;7.80;;
69434;SDS011;56625;54.322;18.582;2024-02-26T05:24:40;20.80;;;8.70;;
69434;SDS011;56625;54.322;18.582;2024-02-26T05:27:10;21.60;;;9.60;;
69434;SDS011;56625;54.322;18.582;2024-02-26T05:29:38;20.30;;;9.10;;
69434;SDS011;56625;54.322;18.582;2024-02-26T05:32:07;22.30;;;9.20;;
69434;SDS011;56625;54.322;18.582;2024-02-26T05:34:35;18.60;;;7.30;;
69434;SDS011;56625;54.322;18.582;2024-02-26T05:37:03;21.20;;;8.80;;
69434;SDS011;56625;54.322;18.582;2024-02-26T05:39:31;22.00;;;8.20;;
69434;SDS011;56625;54.322;18.582;2024-02-26T05:42:00;21.20;;;9.20;;
69434;SDS011;56625;54.322;18.582;2024-02-26T05:44:28;21.60;;;9.50;;
69434;SDS011;56625;54.322;18.582;2024-02-26T05:46:56;28.90;;;10.80;;
69434;SDS011;56625;54.322;18.582;2024-02-26T05:49:24;22.60;;;10.00;;
69434;SDS011;56625;54.322;18.582;2024-02-26T05:51:53;21.40;;;10.30;;
69434;SDS011;56625;54.322;18.582;2024-02-26T05:54:21;23.70;;;10.20;;
69434;SDS011;56625;54.322;18.582;2024-02-26T05:56:49;22.60;;;10.50;;
69434;SDS011;56625;54.322;18.582;2024-02-26T05:59:18;23.40;;;10.30;;
69434;SDS011;56625;54.322;18.582;2024-02-26T06:01:46;21.40;;;9.70;;
69434;SDS011;56625;54.322;18.582;2024-02-26T06:04:14;23.30;;;10.30;;
69434;SDS011;56625;54.322;18.582;2024-02-26T06:06:44;25.50;;;10.70;;
69434;SDS011;56625;54.322;18.582;2024-02-26T06:09:15;27.80;;;11.10;;
69434;SDS011;56625;54.322;18.582;2024-02-26T06:11:44;23.70;;;10.50;;
69434;SDS011;56625;54.322;18.582;2024-02-26T06:14:12;26.40;;;12.40;;
69434;SDS011;56625;54.322;18.582;2024-02-26T06:16:42;24.90;;;11.00;;
69434;SDS011;56625;54.322;18.582;2024-02-26T06:19:10;23.50;;;11.10;;
69434;SDS011;56625;54.322;18.582;2024-02-26T06:21:40;24.50;;;10.70;;
69434;SDS011;56625;54.322;18.582;2024-02-26T06:24:09;25.00;;;12.00;;
69434;SDS011;56625;54.322;18.582;2024-02-26T06:26:37;25.90;;;12.80;;
69434;SDS011;56625;54.322;18.582;2024-02-26T06:29:05;27.80;;;13.40;;
69434;SDS011;56625;54.322;18.582;2024-02-26T06:31:33;26.70;;;12.90;;
69434;SDS011;56625;54.322;18.582;2024-02-26T06:34:02;23.70;;;11.00;;
69434;SDS011;56625;54.322;18.582;2024-02-26T06:36:31;26.70;;;11.40;;
69434;SDS011;56625;54.322;18.582;2024-02-26T06:39:00;25.70;;;11.90;;
69434;SDS011;56625;54.322;18.582;2024-02-26T06:41:28;27.10;;;12.30;;
69434;SDS011;56625;54.322;18.582;2024-02-26T06:43:57;26.00;;;12.20;;
69434;SDS011;56625;54.322;18.582;2024-02-26T06:46:25;27.80;;;12.10;;
69434;SDS011;56625;54.322;18.582;2024-02-26T06:48:54;26.60;;;12.40;;
69434;SDS011;56625;54.322;18.582;2024-02-26T06:51:23;29.20;;;13.90;;
69434;SDS011;56625;54.322;18.582;2024-02-26T06:53:51;29.30;;;13.40;;
69434;SDS011;56625;54.322;18.582;2024-02-26T06:56:20;29.10;;;13.50;;
69434;SDS011;56625;54.322;18.582;2024-02-26T06:58:48;31.50;;;13.30;;
69434;SDS011;56625;54.322;18.582;2024-02-26T07:01:16;29.80;;;12.60;;
69434;SDS011;56625;54.322;18.582;2024-02-26T07:03:46;27.30;;;12.20;;
69434;SDS011;56625;54.322;18.582;2024-02-26T07:06:14;30.40;;;13.20;;
69434;SDS011;56625;54.322;18.582;2024-02-26T07:08:43;29.10;;;13.30;;
69434;SDS011;56625;54.322;18.582;2024-02-26T07:11:11;29.60;;;13.10;;
69434;SDS011;56625;54.322;18.582;2024-02-26T07:13:40;28.20;;;13.50;;
69434;SDS011;56625;54.322;18.582;2024-02-26T07:16:09;26.30;;;12.80;;
69434;SDS011;56625;54.322;18.582;2024-02-26T07:18:41;27.10;;;12.90;;
69434;SDS011;56625;54.322;18.582;2024-02-26T07:21:12;26.60;;;12.00;;
69434;SDS011;56625;54.322;18.582;2024-02-26T07:23:41;28.20;;;12.40;;
69434;SDS011;56625;54.322;18.582;2024-02-26T07:26:09;25.50;;;12.70;;
69434;SDS011;56625;54.322;18.582;2024-02-26T07:28:39;26.50;;;12.60;;
69434;SDS011;56625;54.322;18.582;2024-02-26T07:31:08;30.80;;;13.70;;
69434;SDS011;56625;54.322;18.582;2024-02-26T07:33:36;28.10;;;13.50;;
69434;SDS011;56625;54.322;18.582;2024-02-26T07:36:05;26.20;;;12.20;;
69434;SDS011;56625;54.322;18.582;2024-02-26T07:38:33;29.00;;;14.10;;
69434;SDS011;56625;54.322;18.582;2024-02-26T07:41:11;30.20;;;14.40;;
69434;SDS011;56625;54.322;18.582;2024-02-26T07:43:40;26.40;;;13.00;;
69434;SDS011;56625;54.322;18.582;2024-02-26T07:46:11;28.50;;;13.30;;
69434;SDS011;56625;54.322;18.582;2024-02-26T07:48:41;26.70;;;12.70;;
69434;SDS011;56625;54.322;18.582;2024-02-26T07:51:12;26.50;;;12.90;;
69434;SDS011;56625;54.322;18.582;2024-02-26T07:53:42;27.80;;;12.50;;
69434;SDS011;56625;54.322;18.582;2024-02-26T07:56:10;25.50;;;12.90;;
69434;SDS011;56625;54.322;18.582;2024-02-26T07:58:39;27.00;;;12.80;;
69434;SDS011;56625;54.322;18.582;2024-02-26T08:01:07;24.40;;;12.30;;
69434;SDS011;56625;54.322;18.582;2024-02-26T08:03:37;25.50;;;12.10;;
69434;SDS011;56625;54.322;18.582;2024-02-26T08:06:05;25.30;;;12.80;;
69434;SDS011;56625;54.322;18.582;2024-02-26T08:08:35;26.80;;;13.60;;
69434;SDS011;56625;54.322;18.582;2024-02-26T08:11:04;29.70;;;14.50;;
69434;SDS011;56625;54.322;18.582;2024-02-26T08:13:32;28.10;;;13.70;;
69434;SDS011;56625;54.322;18.582;2024-02-26T08:16:00;28.30;;;13.80;;
69434;SDS011;56625;54.322;18.582;2024-02-26T08:18:29;26.90;;;13.50;;
69434;SDS011;56625;54.322;18.582;2024-02-26T08:20:58;25.40;;;13.20;;
69434;SDS011;56625;54.322;18.582;2024-02-26T08:23:26;27.50;;;13.60;;
69434;SDS011;56625;54.322;18.582;2024-02-26T08:25:54;27.10;;;13.90;;
69434;SDS011;56625;54.322;18.582;2024-02-26T08:28:22;27.30;;;14.30;;
69434;SDS011;56625;54.322;18.582;2024-02-26T08:30:51;23.60;;;12.40;;
69434;SDS011;56625;54.322;18.582;2024-02-26T08:33:19;25.50;;;12.20;;
69434;SDS011;56625;54.322;18.582;2024-02-26T08:35:47;25.30;;;13.20;;
69434;SDS011;56625;54.322;18.582;2024-02-26T08:38:16;28.50;;;12.90;;
69434;SDS011;56625;54.322;18.582;2024-02-26T08:40:44;23.80;;;12.50;;
69434;SDS011;56625;54.322;18.582;2024-02-26T08:43:12;23.50;;;12.60;;
69434;SDS011;56625;54.322;18.582;2024-02-26T08:45:40;24.20;;;12.80;;
69434;SDS011;56625;54.322;18.582;2024-02-26T08:48:08;22.40;;;12.60;;
69434;SDS011;56625;54.322;18.582;2024-02-26T08:50:37;24.40;;;12.70;;
69434;SDS011;56625;54.322;18.582;2024-02-26T08:53:05;23.60;;;12.10;;
69434;SDS011;56625;54.322;18.582;2024-02-26T08:55:35;24.30;;;11.50;;
69434;SDS011;56625;54.322;18.582;2024-02-26T08:58:03;25.50;;;12.90;;
69434;SDS011;56625;54.322;18.582;2024-02-26T09:00:32;21.70;;;11.90;;
69434;SDS011;56625;54.322;18.582;2024-02-26T09:03:00;22.10;;;11.40;;
69434;SDS011;56625;54.322;18.582;2024-02-26T09:05:33;23.70;;;12.50;;
69434;SDS011;56625;54.322;18.582;2024-02-26T09:08:01;25.80;;;12.10;;
69434;SDS011;56625;54.322;18.582;2024-02-26T09:10:30;23.20;;;12.30;;
69434;SDS011;56625;54.322;18.582;2024-02-26T09:13:00;24.10;;;12.50;;
69434;SDS011;56625;54.322;18.582;2024-02-26T09:15:28;23.80;;;11.60;;
69434;SDS011;56625;54.322;18.582;2024-02-26T09:17:57;24.10;;;12.40;;
69434;SDS011;56625;54.322;18.582;2024-02-26T09:20:25;22.20;;;11.40;;
69434;SDS011;56625;54.322;18.582;2024-02-26T09:22:54;22.90;;;12.40;;
69434;SDS011;56625;54.322;18.582;2024-02-26T09:25:22;23.30;;;11.40;;
69434;SDS011;56625;54.322;18.582;2024-02-26T09:27:51;25.40;;;11.30;;
69434;SDS011;56625;54.322;18.582;2024-02-26T09:30:20;25.10;;;12.20;;
69434;SDS011;56625;54.322;18.582;2024-02-26T09:32:48;23.60;;;11.80;;
69434;SDS011;56625;54.322;18.582;2024-02-26T09:35:17;23.10;;;12.30;;
69434;SDS011;56625;54.322;18.582;2024-02-26T09:37:45;23.20;;;12.00;;
69434;SDS011;56625;54.322;18.582;2024-02-26T09:40:13;21.20;;;11.00;;
69434;SDS011;56625;54.322;18.582;2024-02-26T09:42:44;24.30;;;11.80;;
69434;SDS011;56625;54.322;18.582;2024-02-26T09:45:21;22.50;;;11.90;;
69434;SDS011;56625;54.322;18.582;2024-02-26T09:47:55;24.00;;;12.60;;
69434;SDS011;56625;54.322;18.582;2024-02-26T09:50:24;20.30;;;10.80;;
69434;SDS011;56625;54.322;18.582;2024-02-26T09:52:54;20.50;;;11.10;;
69434;SDS011;56625;54.322;18.582;2024-02-26T09:55:25;22.80;;;12.40;;
69434;SDS011;56625;54.322;18.582;2024-02-26T09:57:54;24.60;;;13.30;;
69434;SDS011;56625;54.322;18.582;2024-02-26T10:00:26;25.70;;;14.00;;
69434;SDS011;56625;54.322;18.582;2024-02-26T10:03:04;25.60;;;13.70;;
69434;SDS011;56625;54.322;18.582;2024-02-26T10:05:35;22.00;;;11.60;;
69434;SDS011;56625;54.322;18.582;2024-02-26T10:08:05;23.00;;;12.40;;
69434;SDS011;56625;54.322;18.582;2024-02-26T10:10:37;22.60;;;12.70;;
69434;SDS011;56625;54.322;18.582;2024-02-26T10:13:07;22.00;;;10.90;;
69434;SDS011;56625;54.322;18.582;2024-02-26T10:15:38;21.10;;;11.40;;
69434;SDS011;56625;54.322;18.582;2024-02-26T10:18:06;19.80;;;11.00;;
69434;SDS011;56625;54.322;18.582;2024-02-26T10:20:35;19.90;;;10.40;;
69434;SDS011;56625;54.322;18.582;2024-02-26T10:23:04;21.50;;;10.40;;
69434;SDS011;56625;54.322;18.582;2024-02-26T10:25:33;21.00;;;11.50;;
69434;SDS011;56625;54.322;18.582;2024-02-26T10:28:01;18.60;;;9.30;;
69434;SDS011;56625;54.322;18.582;2024-02-26T10:30:30;19.40;;;11.00;;
69434;SDS011;56625;54.322;18.582;2024-02-26T10:32:59;20.50;;;11.10;;
69434;SDS011;56625;54.322;18.582;2024-02-26T10:35:30;21.30;;;12.10;;
69434;SDS011;56625;54.322;18.582;2024-02-26T10:37:59;23.40;;;12.50;;
69434;SDS011;56625;54.322;18.582;2024-02-26T10:40:28;24.00;;;13.00;;
69434;SDS011;56625;54.322;18.582;2024-02-26T10:42:58;20.90;;;11.10;;
69434;SDS011;56625;54.322;18.582;2024-02-26T10:45:26;22.40;;;11.60;;
69434;SDS011;56625;54.322;18.582;2024-02-26T10:47:55;20.40;;;12.10;;
69434;SDS011;56625;54.322;18.582;2024-02-26T10:50:24;21.70;;;11.50;;
69434;SDS011;56625;54.322;18.582;2024-02-26T10:52:55;23.30;;;12.00;;
69434;SDS011;56625;54.322;18.582;2024-02-26T10:55:23;18.70;;;10.60;;
69434;SDS011;56625;54.322;18.582;2024-02-26T10:57:52;19.70;;;10.90;;
69434;SDS011;56625;54.322;18.582;2024-02-26T11:00:22;19.00;;;10.70;;
69434;SDS011;56625;54.322;18.582;2024-02-26T11:02:52;20.70;;;11.00;;
69434;SDS011;56625;54.322;18.582;2024-02-26T11:05:21;21.20;;;11.20;;
69434;SDS011;56625;54.322;18.582;2024-02-26T11:07:52;19.50;;;9.90;;
69434;SDS011;56625;54.322;18.582;2024-02-26T11:10:21;18.00;;;10.10;;
69434;SDS011;56625;54.322;18.582;2024-02-26T11:12:51;20.00;;;10.80;;
69434;SDS011;56625;54.322;18.582;2024-02-26T11:15:22;23.30;;;11.60;;
69434;SDS011;56625;54.322;18.582;2024-02-26T11:17:52;18.80;;;10.30;;
69434;SDS011;56625;54.322;18.582;2024-02-26T11:20:23;19.50;;;10.90;;
69434;SDS011;56625;54.322;18.582;2024-02-26T11:22:51;19.20;;;11.20;;
69434;SDS011;56625;54.322;18.582;2024-02-26T11:25:19;20.10;;;10.70;;
69434;SDS011;56625;54.322;18.582;2024-02-26T11:27:51;22.60;;;11.20;;
69434;SDS011;56625;54.322;18.582;2024-02-26T11:30:30;22.00;;;10.90;;
69434;SDS011;56625;54.322;18.582;2024-02-26T11:33:00;21.60;;;11.70;;
69434;SDS011;56625;54.322;18.582;2024-02-26T11:35:34;22.70;;;11.90;;
69434;SDS011;56625;54.322;18.582;2024-02-26T11:38:05;22.00;;;11.70;;
69434;SDS011;56625;54.322;18.582;2024-02-26T11:40:38;20.40;;;12.00;;
69434;SDS011;56625;54.322;18.582;2024-02-26T11:43:10;21.30;;;12.50;;
69434;SDS011;56625;54.322;18.582;2024-02-26T11:48:23;21.60;;;12.60;;
69434;SDS011;56625;54.322;18.582;2024-02-26T11:50:54;21.10;;;12.30;;
69434;SDS011;56625;54.322;18.582;2024-02-26T11:53:24;21.90;;;11.80;;
69434;SDS011;56625;54.322;18.582;2024-02-26T11:56:13;23.10;;;12.60;;
69434;SDS011;56625;54.322;18.582;2024-02-26T11:59:01;22.00;;;11.10;;
69434;SDS011;56625;54.322;18.582;2024-02-26T12:04:12;24.00;;;12.10;;
69434;SDS011;56625;54.322;18.582;2024-02-26T12:06:56;20.60;;;12.10;;
69434;SDS011;56625;54.322;18.582;2024-02-26T12:09:41;21.30;;;11.60;;
69434;SDS011;56625;54.322;18.582;2024-02-26T12:12:13;22.30;;;11.80;;
69434;SDS011;56625;54.322;18.582;2024-02-26T12:14:52;21.80;;;11.70;;
69434;SDS011;56625;54.322;18.582;2024-02-26T12:17:23;21.30;;;11.20;;
69434;SDS011;56625;54.322;18.582;2024-02-26T12:19:52;21.90;;;11.70;;
69434;SDS011;56625;54.322;18.582;2024-02-26T12:22:22;22.00;;;12.00;;
69434;SDS011;56625;54.322;18.582;2024-02-26T12:24:59;25.60;;;11.60;;
69434;SDS011;56625;54.322;18.582;2024-02-26T12:27:29;22.70;;;11.30;;
69434;SDS011;56625;54.322;18.582;2024-02-26T12:29:57;24.40;;;12.30;;
69434;SDS011;56625;54.322;18.582;2024-02-26T12:32:26;23.20;;;11.50;;
69434;SDS011;56625;54.322;18.582;2024-02-26T12:34:54;24.50;;;12.40;;
69434;SDS011;56625;54.322;18.582;2024-02-26T12:37:22;22.30;;;11.90;;
69434;SDS011;56625;54.322;18.582;2024-02-26T12:39:51;20.40;;;11.60;;
69434;SDS011;56625;54.322;18.582;2024-02-26T12:42:19;20.90;;;11.30;;
69434;SDS011;56625;54.322;18.582;2024-02-26T12:44:49;21.20;;;12.50;;
69434;SDS011;56625;54.322;18.582;2024-02-26T12:47:19;23.80;;;13.10;;
69434;SDS011;56625;54.322;18.582;2024-02-26T12:49:48;21.30;;;11.90;;
69434;SDS011;56625;54.322;18.582;2024-02-26T12:52:17;22.90;;;12.40;;
69434;SDS011;56625;54.322;18.582;2024-02-26T12:54:45;23.10;;;13.10;;
69434;SDS011;56625;54.322;18.582;2024-02-26T12:57:14;25.20;;;14.00;;
69434;SDS011;56625;54.322;18.582;2024-02-26T12:59:43;24.00;;;12.80;;
69434;SDS011;56625;54.322;18.582;2024-02-26T13:02:11;26.10;;;14.40;;
69434;SDS011;56625;54.322;18.582;2024-02-26T13:04:40;23.90;;;13.50;;
69434;SDS011;56625;54.322;18.582;2024-02-26T13:07:09;27.10;;;14.50;;
69434;SDS011;56625;54.322;18.582;2024-02-26T13:09:38;27.80;;;15.00;;
69434;SDS011;56625;54.322;18.582;2024-02-26T13:12:07;28.00;;;15.30;;
69434;SDS011;56625;54.322;18.582;2024-02-26T13:14:36;27.50;;;14.70;;
69434;SDS011;56625;54.322;18.582;2024-02-26T13:17:04;25.80;;;14.40;;
69434;SDS011;56625;54.322;18.582;2024-02-26T13:19:33;29.00;;;14.80;;
69434;SDS011;56625;54.322;18.582;2024-02-26T13:22:06;26.90;;;14.90;;
69434;SDS011;56625;54.322;18.582;2024-02-26T13:24:35;31.00;;;16.60;;
69434;SDS011;56625;54.322;18.582;2024-02-26T13:27:07;26.40;;;14.40;;
69434;SDS011;56625;54.322;18.582;2024-02-26T13:29:35;32.50;;;15.50;;
69434;SDS011;56625;54.322;18.582;2024-02-26T13:32:03;32.50;;;17.50;;
69434;SDS011;56625;54.322;18.582;2024-02-26T13:34:32;28.70;;;16.00;;
69434;SDS011;56625;54.322;18.582;2024-02-26T13:37:02;30.50;;;16.20;;
69434;SDS011;56625;54.322;18.582;2024-02-26T13:39:31;32.60;;;16.70;;
69434;SDS011;56625;54.322;18.582;2024-02-26T13:41:59;31.50;;;16.70;;
69434;SDS011;56625;54.322;18.582;2024-02-26T13:44:28;31.90;;;17.40;;
69434;SDS011;56625;54.322;18.582;2024-02-26T13:46:56;34.90;;;17.70;;
69434;SDS011;56625;54.322;18.582;2024-02-26T13:49:24;30.80;;;17.30;;
69434;SDS011;56625;54.322;18.582;2024-02-26T13:51:52;33.40;;;17.30;;
69434;SDS011;56625;54.322;18.582;2024-02-26T13:54:20;33.30;;;18.60;;
69434;SDS011;56625;54.322;18.582;2024-02-26T13:56:49;32.80;;;18.60;;
69434;SDS011;56625;54.322;18.582;2024-02-26T13:59:18;35.50;;;18.60;;
69434;SDS011;56625;54.322;18.582;2024-02-26T14:01:46;36.10;;;19.20;;
69434;SDS011;56625;54.322;18.582;2024-02-26T14:04:14;36.90;;;18.20;;
69434;SDS011;56625;54.322;18.582;2024-02-26T14:06:45;33.50;;;17.80;;
69434;SDS011;56625;54.322;18.582;2024-02-26T14:09:13;38.70;;;18.70;;
69434;SDS011;56625;54.322;18.582;2024-02-26T14:11:47;36.00;;;18.80;;
69434;SDS011;56625;54.322;18.582;2024-02-26T14:14:15;42.00;;;20.30;;
69434;SDS011;56625;54.322;18.582;2024-02-26T14:16:43;38.60;;;19.20;;
69434;SDS011;56625;54.322;18.582;2024-02-26T14:19:12;37.20;;;17.00;;
69434;SDS011;56625;54.322;18.582;2024-02-26T14:21:42;29.60;;;15.40;;
69434;SDS011;56625;54.322;18.582;2024-02-26T14:24:11;27.80;;;15.10;;
69434;SDS011;56625;54.322;18.582;2024-02-26T14:26:40;29.40;;;15.60;;
69434;SDS011;56625;54.322;18.582;2024-02-26T14:29:08;32.40;;;16.10;;
69434;SDS011;56625;54.322;18.582;2024-02-26T14:31:36;32.60;;;16.70;;